sensor_id;sensor_type;location;lat;lon;timestamp;P1;durP1;ratioP1;P2;durP2;ratioP2
24787;SDS011;12883;52.662;5.196;2024-03-22T00:01:39;38.63;;;38.40;;
24787;SDS011;12883;52.662;5.196;2024-03-22T00:04:04;39.30;;;39.00;;
24787;SDS011;12883;52.662;5.196;2024-03-22T00:06:29;40.83;;;40.53;;
24787;SDS011;12883;52.662;5.196;2024-03-22T00:08:55;40.07;;;39.77;;
24787;SDS011;12883;52.662;5.196;2024-03-22T00:11:20;39.77;;;39.50;;
24787;SDS011;12883;52.662;5.196;2024-03-22T00:13:45;41.47;;;41.17;;
24787;SDS011;12883;52.662;5.196;2024-03-22T00:16:11;41.93;;;41.63;;
24787;SDS011;12883;52.662;5.196;2024-03-22T00:18:36;42.40;;;42.10;;
24787;SDS011;12883;52.662;5.196;2024-03-22T00:21:01;40.13;;;39.83;;
24787;SDS011;12883;52.662;5.196;2024-03-22T00:23:27;41.50;;;41.20;;
24787;SDS011;12883;52.662;5.196;2024-03-22T00:25:54;42.87;;;42.57;;
24787;SDS011;12883;52.662;5.196;2024-03-22T00:28:19;42.17;;;41.87;;
24787;SDS011;12883;52.662;5.196;2024-03-22T00:30:45;41.37;;;41.07;;
24787;SDS011;12883;52.662;5.196;2024-03-22T00:33:10;41.53;;;41.22;;
24787;SDS011;12883;52.662;5.196;2024-03-22T00:35:35;42.93;;;42.63;;
24787;SDS011;12883;52.662;5.196;2024-03-22T00:38:00;41.77;;;41.47;;
24787;SDS011;12883;52.662;5.196;2024-03-22T00:40:26;43.50;;;43.20;;
24787;SDS011;12883;52.662;5.196;2024-03-22T00:42:52;42.27;;;41.97;;
24787;SDS011;12883;52.662;5.196;2024-03-22T00:45:17;42.30;;;42.00;;
24787;SDS011;12883;52.662;5.196;2024-03-22T00:47:43;42.27;;;41.97;;
24787;SDS011;12883;52.662;5.196;2024-03-22T00:50:08;43.63;;;43.33;;
24787;SDS011;12883;52.662;5.196;2024-03-22T00:52:33;44.67;;;44.37;;
24787;SDS011;12883;52.662;5.196;2024-03-22T00:54:59;44.17;;;43.87;;
24787;SDS011;12883;52.662;5.196;2024-03-22T00:57:24;43.83;;;43.53;;
24787;SDS011;12883;52.662;5.196;2024-03-22T00:59:50;44.57;;;44.27;;
24787;SDS011;12883;52.662;5.196;2024-03-22T01:02:15;43.03;;;42.73;;
24787;SDS011;12883;52.662;5.196;2024-03-22T01:04:40;44.43;;;44.13;;
24787;SDS011;12883;52.662;5.196;2024-03-22T01:07:06;41.83;;;41.53;;
24787;SDS011;12883;52.662;5.196;2024-03-22T01:09:31;44.90;;;44.60;;
24787;SDS011;12883;52.662;5.196;2024-03-22T01:11:56;46.97;;;46.57;;
24787;SDS011;12883;52.662;5.196;2024-03-22T01:14:22;44.97;;;44.67;;
24787;SDS011;12883;52.662;5.196;2024-03-22T01:16:47;46.97;;;46.67;;
24787;SDS011;12883;52.662;5.196;2024-03-22T01:19:12;44.33;;;44.03;;
24787;SDS011;12883;52.662;5.196;2024-03-22T01:21:38;45.13;;;44.83;;
24787;SDS011;12883;52.662;5.196;2024-03-22T01:24:03;43.80;;;43.50;;
24787;SDS011;12883;52.662;5.196;2024-03-22T01:26:28;45.03;;;44.73;;
24787;SDS011;12883;52.662;5.196;2024-03-22T01:28:54;44.80;;;44.40;;
24787;SDS011;12883;52.662;5.196;2024-03-22T01:31:19;44.00;;;43.70;;
24787;SDS011;12883;52.662;5.196;2024-03-22T01:33:44;43.27;;;42.97;;
24787;SDS011;12883;52.662;5.196;2024-03-22T01:36:10;42.93;;;42.63;;
24787;SDS011;12883;52.662;5.196;2024-03-22T01:38:35;42.93;;;42.63;;
24787;SDS011;12883;52.662;5.196;2024-03-22T01:41:00;42.20;;;41.90;;
24787;SDS011;12883;52.662;5.196;2024-03-22T01:43:26;42.63;;;42.33;;
24787;SDS011;12883;52.662;5.196;2024-03-22T01:45:51;43.47;;;43.17;;
24787;SDS011;12883;52.662;5.196;2024-03-22T01:48:16;43.63;;;43.30;;
24787;SDS011;12883;52.662;5.196;2024-03-22T01:50:42;41.53;;;41.23;;
24787;SDS011;12883;52.662;5.196;2024-03-22T01:53:08;40.20;;;39.90;;
24787;SDS011;12883;52.662;5.196;2024-03-22T01:55:34;41.23;;;40.93;;
24787;SDS011;12883;52.662;5.196;2024-03-22T01:57:59;41.87;;;41.57;;
24787;SDS011;12883;52.662;5.196;2024-03-22T02:00:24;41.67;;;41.37;;
24787;SDS011;12883;52.662;5.196;2024-03-22T02:02:50;39.90;;;39.60;;
24787;SDS011;12883;52.662;5.196;2024-03-22T02:05:15;39.17;;;38.87;;
24787;SDS011;12883;52.662;5.196;2024-03-22T02:07:44;40.17;;;39.87;;
24787;SDS011;12883;52.662;5.196;2024-03-22T02:10:10;38.90;;;38.60;;
24787;SDS011;12883;52.662;5.196;2024-03-22T02:12:37;38.07;;;37.77;;
24787;SDS011;12883;52.662;5.196;2024-03-22T02:15:03;39.73;;;39.43;;
24787;SDS011;12883;52.662;5.196;2024-03-22T02:17:28;40.40;;;40.10;;
24787;SDS011;12883;52.662;5.196;2024-03-22T02:19:54;39.83;;;39.53;;
24787;SDS011;12883;52.662;5.196;2024-03-22T02:22:19;39.53;;;39.23;;
24787;SDS011;12883;52.662;5.196;2024-03-22T02:24:44;39.93;;;39.63;;
24787;SDS011;12883;52.662;5.196;2024-03-22T02:27:09;39.63;;;39.33;;
24787;SDS011;12883;52.662;5.196;2024-03-22T02:29:35;38.70;;;38.40;;
24787;SDS011;12883;52.662;5.196;2024-03-22T02:32:00;40.10;;;39.80;;
24787;SDS011;12883;52.662;5.196;2024-03-22T02:34:25;38.03;;;37.73;;
24787;SDS011;12883;52.662;5.196;2024-03-22T02:36:51;38.27;;;37.97;;
24787;SDS011;12883;52.662;5.196;2024-03-22T02:39:16;39.07;;;38.77;;
24787;SDS011;12883;52.662;5.196;2024-03-22T02:41:41;38.87;;;38.57;;
24787;SDS011;12883;52.662;5.196;2024-03-22T02:44:07;38.20;;;37.90;;
24787;SDS011;12883;52.662;5.196;2024-03-22T02:46:32;36.83;;;36.53;;
24787;SDS011;12883;52.662;5.196;2024-03-22T02:48:57;35.73;;;35.43;;
24787;SDS011;12883;52.662;5.196;2024-03-22T02:51:23;36.17;;;35.97;;
24787;SDS011;12883;52.662;5.196;2024-03-22T02:53:48;33.40;;;33.20;;
24787;SDS011;12883;52.662;5.196;2024-03-22T02:56:13;33.83;;;33.63;;
24787;SDS011;12883;52.662;5.196;2024-03-22T02:58:39;33.63;;;33.43;;
24787;SDS011;12883;52.662;5.196;2024-03-22T03:01:04;32.40;;;32.20;;
24787;SDS011;12883;52.662;5.196;2024-03-22T03:03:30;31.93;;;31.73;;
24787;SDS011;12883;52.662;5.196;2024-03-22T03:05:56;33.23;;;33.03;;
24787;SDS011;12883;52.662;5.196;2024-03-22T03:08:21;31.17;;;30.97;;
24787;SDS011;12883;52.662;5.196;2024-03-22T03:10:46;30.57;;;30.37;;
24787;SDS011;12883;52.662;5.196;2024-03-22T03:13:12;30.90;;;30.70;;
24787;SDS011;12883;52.662;5.196;2024-03-22T03:15:37;29.17;;;28.97;;
24787;SDS011;12883;52.662;5.196;2024-03-22T03:18:03;28.60;;;28.40;;
24787;SDS011;12883;52.662;5.196;2024-03-22T03:20:28;28.03;;;27.83;;
24787;SDS011;12883;52.662;5.196;2024-03-22T03:22:54;28.20;;;28.00;;
24787;SDS011;12883;52.662;5.196;2024-03-22T03:25:20;26.73;;;26.53;;
24787;SDS011;12883;52.662;5.196;2024-03-22T03:27:45;24.20;;;24.00;;
24787;SDS011;12883;52.662;5.196;2024-03-22T03:30:11;24.80;;;24.60;;
24787;SDS011;12883;52.662;5.196;2024-03-22T03:32:36;23.37;;;23.17;;
24787;SDS011;12883;52.662;5.196;2024-03-22T03:35:02;25.17;;;24.97;;
24787;SDS011;12883;52.662;5.196;2024-03-22T03:37:27;23.40;;;23.27;;
24787;SDS011;12883;52.662;5.196;2024-03-22T03:39:52;23.40;;;23.20;;
24787;SDS011;12883;52.662;5.196;2024-03-22T03:42:18;25.67;;;25.47;;
24787;SDS011;12883;52.662;5.196;2024-03-22T03:44:43;23.77;;;23.57;;
24787;SDS011;12883;52.662;5.196;2024-03-22T03:47:08;23.07;;;22.87;;
24787;SDS011;12883;52.662;5.196;2024-03-22T03:49:34;23.13;;;22.93;;
24787;SDS011;12883;52.662;5.196;2024-03-22T03:51:59;24.43;;;24.23;;
24787;SDS011;12883;52.662;5.196;2024-03-22T03:54:24;23.63;;;23.43;;
24787;SDS011;12883;52.662;5.196;2024-03-22T03:56:50;24.57;;;24.37;;
24787;SDS011;12883;52.662;5.196;2024-03-22T03:59:15;23.97;;;23.77;;
24787;SDS011;12883;52.662;5.196;2024-03-22T04:01:40;22.97;;;22.77;;
24787;SDS011;12883;52.662;5.196;2024-03-22T04:04:06;25.07;;;24.87;;
24787;SDS011;12883;52.662;5.196;2024-03-22T04:06:31;22.97;;;22.77;;
24787;SDS011;12883;52.662;5.196;2024-03-22T04:08:56;21.83;;;21.63;;
24787;SDS011;12883;52.662;5.196;2024-03-22T04:11:22;21.83;;;21.63;;
24787;SDS011;12883;52.662;5.196;2024-03-22T04:13:48;21.03;;;20.93;;
24787;SDS011;12883;52.662;5.196;2024-03-22T04:16:13;21.20;;;21.00;;
24787;SDS011;12883;52.662;5.196;2024-03-22T04:18:39;22.83;;;22.63;;
24787;SDS011;12883;52.662;5.196;2024-03-22T04:21:04;21.90;;;21.70;;
24787;SDS011;12883;52.662;5.196;2024-03-22T04:23:29;20.10;;;20.00;;
24787;SDS011;12883;52.662;5.196;2024-03-22T04:25:58;20.23;;;20.03;;
24787;SDS011;12883;52.662;5.196;2024-03-22T04:28:25;19.17;;;18.97;;
24787;SDS011;12883;52.662;5.196;2024-03-22T04:31:00;19.83;;;19.63;;
24787;SDS011;12883;52.662;5.196;2024-03-22T04:33:27;17.80;;;17.70;;
24787;SDS011;12883;52.662;5.196;2024-03-22T04:35:54;17.60;;;17.50;;
24787;SDS011;12883;52.662;5.196;2024-03-22T04:38:19;16.97;;;16.77;;
24787;SDS011;12883;52.662;5.196;2024-03-22T04:40:45;16.17;;;16.07;;
24787;SDS011;12883;52.662;5.196;2024-03-22T04:43:10;15.43;;;15.30;;
24787;SDS011;12883;52.662;5.196;2024-03-22T04:45:36;16.57;;;16.47;;
24787;SDS011;12883;52.662;5.196;2024-03-22T04:48:02;16.47;;;16.27;;
24787;SDS011;12883;52.662;5.196;2024-03-22T04:50:29;16.87;;;16.67;;
24787;SDS011;12883;52.662;5.196;2024-03-22T04:52:54;16.20;;;16.00;;
24787;SDS011;12883;52.662;5.196;2024-03-22T04:55:20;16.37;;;16.27;;
24787;SDS011;12883;52.662;5.196;2024-03-22T04:57:45;16.03;;;15.83;;
24787;SDS011;12883;52.662;5.196;2024-03-22T05:00:11;15.67;;;15.57;;
24787;SDS011;12883;52.662;5.196;2024-03-22T05:02:36;15.57;;;15.47;;
24787;SDS011;12883;52.662;5.196;2024-03-22T05:05:02;18.07;;;17.87;;
24787;SDS011;12883;52.662;5.196;2024-03-22T05:07:27;16.77;;;16.57;;
24787;SDS011;12883;52.662;5.196;2024-03-22T05:09:52;15.67;;;15.47;;
24787;SDS011;12883;52.662;5.196;2024-03-22T05:12:18;15.53;;;15.33;;
24787;SDS011;12883;52.662;5.196;2024-03-22T05:14:43;14.77;;;14.67;;
24787;SDS011;12883;52.662;5.196;2024-03-22T05:17:08;15.60;;;15.50;;
24787;SDS011;12883;52.662;5.196;2024-03-22T05:19:34;15.17;;;14.97;;
24787;SDS011;12883;52.662;5.196;2024-03-22T05:21:59;14.17;;;14.07;;
24787;SDS011;12883;52.662;5.196;2024-03-22T05:24:25;15.87;;;15.77;;
24787;SDS011;12883;52.662;5.196;2024-03-22T05:26:51;15.37;;;15.27;;
24787;SDS011;12883;52.662;5.196;2024-03-22T05:29:16;15.43;;;15.33;;
24787;SDS011;12883;52.662;5.196;2024-03-22T05:31:48;16.98;;;16.77;;
24787;SDS011;12883;52.662;5.196;2024-03-22T05:34:16;14.97;;;14.87;;
24787;SDS011;12883;52.662;5.196;2024-03-22T05:36:41;16.23;;;16.13;;
24787;SDS011;12883;52.662;5.196;2024-03-22T05:39:06;16.10;;;15.90;;
24787;SDS011;12883;52.662;5.196;2024-03-22T05:41:32;15.03;;;14.93;;
24787;SDS011;12883;52.662;5.196;2024-03-22T05:43:57;15.83;;;15.73;;
24787;SDS011;12883;52.662;5.196;2024-03-22T05:46:22;17.43;;;17.30;;
24787;SDS011;12883;52.662;5.196;2024-03-22T05:48:48;15.87;;;15.77;;
24787;SDS011;12883;52.662;5.196;2024-03-22T05:51:15;17.70;;;17.60;;
24787;SDS011;12883;52.662;5.196;2024-03-22T05:53:41;16.90;;;16.80;;
24787;SDS011;12883;52.662;5.196;2024-03-22T05:56:07;16.50;;;16.40;;
24787;SDS011;12883;52.662;5.196;2024-03-22T05:58:32;17.07;;;16.97;;
24787;SDS011;12883;52.662;5.196;2024-03-22T06:00:58;16.20;;;16.10;;
24787;SDS011;12883;52.662;5.196;2024-03-22T06:03:23;16.53;;;16.43;;
24787;SDS011;12883;52.662;5.196;2024-03-22T06:05:48;16.37;;;16.27;;
24787;SDS011;12883;52.662;5.196;2024-03-22T06:08:14;17.33;;;17.23;;
24787;SDS011;12883;52.662;5.196;2024-03-22T06:10:44;16.07;;;15.97;;
24787;SDS011;12883;52.662;5.196;2024-03-22T06:13:10;17.02;;;16.92;;
24787;SDS011;12883;52.662;5.196;2024-03-22T06:15:35;16.20;;;16.10;;
24787;SDS011;12883;52.662;5.196;2024-03-22T06:18:00;15.07;;;14.97;;
24787;SDS011;12883;52.662;5.196;2024-03-22T06:20:26;16.13;;;16.03;;
24787;SDS011;12883;52.662;5.196;2024-03-22T06:22:51;16.40;;;16.30;;
24787;SDS011;12883;52.662;5.196;2024-03-22T06:25:16;14.43;;;14.33;;
24787;SDS011;12883;52.662;5.196;2024-03-22T06:27:41;15.93;;;15.83;;
24787;SDS011;12883;52.662;5.196;2024-03-22T06:30:07;15.27;;;15.17;;
24787;SDS011;12883;52.662;5.196;2024-03-22T06:32:32;16.33;;;16.23;;
24787;SDS011;12883;52.662;5.196;2024-03-22T06:34:58;15.63;;;15.53;;
24787;SDS011;12883;52.662;5.196;2024-03-22T06:37:23;16.70;;;16.60;;
24787;SDS011;12883;52.662;5.196;2024-03-22T06:39:48;15.67;;;15.57;;
24787;SDS011;12883;52.662;5.196;2024-03-22T06:42:13;15.23;;;15.13;;
24787;SDS011;12883;52.662;5.196;2024-03-22T06:44:39;15.23;;;15.13;;
24787;SDS011;12883;52.662;5.196;2024-03-22T06:47:04;14.77;;;14.67;;
24787;SDS011;12883;52.662;5.196;2024-03-22T06:49:30;14.90;;;14.80;;
24787;SDS011;12883;52.662;5.196;2024-03-22T06:51:55;14.73;;;14.63;;
24787;SDS011;12883;52.662;5.196;2024-03-22T06:54:20;16.55;;;16.38;;
24787;SDS011;12883;52.662;5.196;2024-03-22T06:56:46;14.60;;;14.50;;
24787;SDS011;12883;52.662;5.196;2024-03-22T06:59:12;14.43;;;14.33;;
24787;SDS011;12883;52.662;5.196;2024-03-22T07:01:37;15.57;;;15.47;;
24787;SDS011;12883;52.662;5.196;2024-03-22T07:04:03;13.60;;;13.50;;
24787;SDS011;12883;52.662;5.196;2024-03-22T07:06:28;13.83;;;13.73;;
24787;SDS011;12883;52.662;5.196;2024-03-22T07:08:53;14.70;;;14.60;;
24787;SDS011;12883;52.662;5.196;2024-03-22T07:11:19;14.30;;;14.20;;
24787;SDS011;12883;52.662;5.196;2024-03-22T07:13:44;13.17;;;13.07;;
24787;SDS011;12883;52.662;5.196;2024-03-22T07:16:10;13.97;;;13.87;;
24787;SDS011;12883;52.662;5.196;2024-03-22T07:18:35;14.37;;;14.27;;
24787;SDS011;12883;52.662;5.196;2024-03-22T07:21:01;13.57;;;13.47;;
24787;SDS011;12883;52.662;5.196;2024-03-22T07:23:28;13.47;;;13.37;;
24787;SDS011;12883;52.662;5.196;2024-03-22T07:25:54;14.07;;;13.97;;
24787;SDS011;12883;52.662;5.196;2024-03-22T07:28:19;12.60;;;12.50;;
24787;SDS011;12883;52.662;5.196;2024-03-22T07:30:44;13.30;;;13.20;;
24787;SDS011;12883;52.662;5.196;2024-03-22T07:33:10;13.83;;;13.73;;
24787;SDS011;12883;52.662;5.196;2024-03-22T07:35:38;13.30;;;13.20;;
24787;SDS011;12883;52.662;5.196;2024-03-22T07:38:04;13.47;;;13.37;;
24787;SDS011;12883;52.662;5.196;2024-03-22T07:40:29;13.00;;;12.90;;
24787;SDS011;12883;52.662;5.196;2024-03-22T07:42:54;13.80;;;13.70;;
24787;SDS011;12883;52.662;5.196;2024-03-22T07:45:20;14.37;;;14.27;;
24787;SDS011;12883;52.662;5.196;2024-03-22T07:47:45;14.33;;;14.23;;
24787;SDS011;12883;52.662;5.196;2024-03-22T07:50:10;14.40;;;14.30;;
24787;SDS011;12883;52.662;5.196;2024-03-22T07:52:36;12.93;;;12.83;;
24787;SDS011;12883;52.662;5.196;2024-03-22T07:55:01;14.07;;;13.97;;
24787;SDS011;12883;52.662;5.196;2024-03-22T07:57:28;13.53;;;13.43;;
24787;SDS011;12883;52.662;5.196;2024-03-22T07:59:59;14.70;;;14.60;;
24787;SDS011;12883;52.662;5.196;2024-03-22T08:02:24;14.20;;;14.10;;
24787;SDS011;12883;52.662;5.196;2024-03-22T08:04:50;14.10;;;14.00;;
24787;SDS011;12883;52.662;5.196;2024-03-22T08:07:15;14.30;;;14.20;;
24787;SDS011;12883;52.662;5.196;2024-03-22T08:09:40;13.73;;;13.63;;
24787;SDS011;12883;52.662;5.196;2024-03-22T08:12:06;14.25;;;14.15;;
24787;SDS011;12883;52.662;5.196;2024-03-22T08:14:32;13.83;;;13.73;;
24787;SDS011;12883;52.662;5.196;2024-03-22T08:16:57;14.27;;;14.17;;
24787;SDS011;12883;52.662;5.196;2024-03-22T08:19:22;13.70;;;13.60;;
24787;SDS011;12883;52.662;5.196;2024-03-22T08:21:48;14.52;;;14.43;;
24787;SDS011;12883;52.662;5.196;2024-03-22T08:24:14;13.83;;;13.73;;
24787;SDS011;12883;52.662;5.196;2024-03-22T08:26:39;13.03;;;12.93;;
24787;SDS011;12883;52.662;5.196;2024-03-22T08:29:04;13.40;;;13.30;;
24787;SDS011;12883;52.662;5.196;2024-03-22T08:31:30;15.30;;;15.20;;
24787;SDS011;12883;52.662;5.196;2024-03-22T08:33:55;14.43;;;14.33;;
24787;SDS011;12883;52.662;5.196;2024-03-22T08:36:21;14.90;;;14.80;;
24787;SDS011;12883;52.662;5.196;2024-03-22T08:38:48;14.30;;;14.20;;
24787;SDS011;12883;52.662;5.196;2024-03-22T08:41:14;15.00;;;14.90;;
24787;SDS011;12883;52.662;5.196;2024-03-22T08:43:39;15.60;;;15.50;;
24787;SDS011;12883;52.662;5.196;2024-03-22T08:46:05;15.57;;;15.47;;
24787;SDS011;12883;52.662;5.196;2024-03-22T08:48:30;16.03;;;15.93;;
24787;SDS011;12883;52.662;5.196;2024-03-22T08:50:55;15.77;;;15.67;;
24787;SDS011;12883;52.662;5.196;2024-03-22T08:53:21;16.97;;;16.87;;
24787;SDS011;12883;52.662;5.196;2024-03-22T08:55:46;16.20;;;16.10;;
24787;SDS011;12883;52.662;5.196;2024-03-22T08:58:15;16.43;;;16.33;;
24787;SDS011;12883;52.662;5.196;2024-03-22T09:00:42;15.70;;;15.60;;
24787;SDS011;12883;52.662;5.196;2024-03-22T09:03:07;15.60;;;15.50;;
24787;SDS011;12883;52.662;5.196;2024-03-22T09:05:32;15.53;;;15.43;;
24787;SDS011;12883;52.662;5.196;2024-03-22T09:07:58;15.83;;;15.73;;
24787;SDS011;12883;52.662;5.196;2024-03-22T09:10:24;16.07;;;15.97;;
24787;SDS011;12883;52.662;5.196;2024-03-22T09:12:49;16.20;;;16.10;;
24787;SDS011;12883;52.662;5.196;2024-03-22T09:15:15;14.93;;;14.83;;
24787;SDS011;12883;52.662;5.196;2024-03-22T09:17:40;15.73;;;15.63;;
24787;SDS011;12883;52.662;5.196;2024-03-22T09:20:05;15.53;;;15.43;;
24787;SDS011;12883;52.662;5.196;2024-03-22T09:22:32;15.60;;;15.50;;
24787;SDS011;12883;52.662;5.196;2024-03-22T09:24:58;16.57;;;16.47;;
24787;SDS011;12883;52.662;5.196;2024-03-22T09:27:24;16.37;;;16.27;;
24787;SDS011;12883;52.662;5.196;2024-03-22T09:29:49;16.17;;;16.07;;
24787;SDS011;12883;52.662;5.196;2024-03-22T09:32:14;14.80;;;14.70;;
24787;SDS011;12883;52.662;5.196;2024-03-22T09:34:40;14.90;;;14.80;;
24787;SDS011;12883;52.662;5.196;2024-03-22T09:37:05;16.07;;;15.97;;
24787;SDS011;12883;52.662;5.196;2024-03-22T09:39:31;14.07;;;13.97;;
24787;SDS011;12883;52.662;5.196;2024-03-22T09:41:57;15.67;;;15.57;;
24787;SDS011;12883;52.662;5.196;2024-03-22T09:44:26;14.17;;;14.07;;
24787;SDS011;12883;52.662;5.196;2024-03-22T09:46:52;14.27;;;14.17;;
24787;SDS011;12883;52.662;5.196;2024-03-22T09:49:18;13.40;;;13.40;;
24787;SDS011;12883;52.662;5.196;2024-03-22T09:51:44;13.13;;;13.03;;
24787;SDS011;12883;52.662;5.196;2024-03-22T09:54:12;13.50;;;13.43;;
24787;SDS011;12883;52.662;5.196;2024-03-22T09:56:38;13.67;;;13.67;;
24787;SDS011;12883;52.662;5.196;2024-03-22T09:59:05;12.30;;;12.30;;
24787;SDS011;12883;52.662;5.196;2024-03-22T10:01:31;13.90;;;13.80;;
24787;SDS011;12883;52.662;5.196;2024-03-22T10:03:57;12.20;;;12.20;;
24787;SDS011;12883;52.662;5.196;2024-03-22T10:06:22;11.90;;;11.90;;
24787;SDS011;12883;52.662;5.196;2024-03-22T10:08:48;12.07;;;12.07;;
24787;SDS011;12883;52.662;5.196;2024-03-22T10:11:13;13.57;;;13.47;;
24787;SDS011;12883;52.662;5.196;2024-03-22T10:13:39;13.20;;;13.17;;
24787;SDS011;12883;52.662;5.196;2024-03-22T10:16:04;13.23;;;13.13;;
24787;SDS011;12883;52.662;5.196;2024-03-22T10:18:32;12.73;;;12.73;;
24787;SDS011;12883;52.662;5.196;2024-03-22T10:21:01;12.20;;;12.20;;
24787;SDS011;12883;52.662;5.196;2024-03-22T10:23:27;12.37;;;12.30;;
24787;SDS011;12883;52.662;5.196;2024-03-22T10:25:55;11.67;;;11.67;;
24787;SDS011;12883;52.662;5.196;2024-03-22T10:28:22;12.30;;;12.30;;
24787;SDS011;12883;52.662;5.196;2024-03-22T10:30:50;13.10;;;13.10;;
24787;SDS011;12883;52.662;5.196;2024-03-22T10:33:15;13.20;;;13.20;;
24787;SDS011;12883;52.662;5.196;2024-03-22T10:35:42;12.30;;;12.30;;
24787;SDS011;12883;52.662;5.196;2024-03-22T10:38:09;13.17;;;13.17;;
24787;SDS011;12883;52.662;5.196;2024-03-22T10:40:37;13.53;;;13.53;;
24787;SDS011;12883;52.662;5.196;2024-03-22T10:43:09;13.83;;;13.83;;
24787;SDS011;12883;52.662;5.196;2024-03-22T10:45:34;14.33;;;14.33;;
24787;SDS011;12883;52.662;5.196;2024-03-22T10:48:00;13.87;;;13.87;;
24787;SDS011;12883;52.662;5.196;2024-03-22T10:50:32;15.07;;;15.03;;
24787;SDS011;12883;52.662;5.196;2024-03-22T10:53:01;14.30;;;14.20;;
24787;SDS011;12883;52.662;5.196;2024-03-22T10:55:35;15.80;;;15.70;;
24787;SDS011;12883;52.662;5.196;2024-03-22T10:58:04;16.27;;;16.17;;
24787;SDS011;12883;52.662;5.196;2024-03-22T11:00:33;16.40;;;16.30;;
24787;SDS011;12883;52.662;5.196;2024-03-22T11:03:02;16.47;;;16.37;;
24787;SDS011;12883;52.662;5.196;2024-03-22T11:05:28;17.23;;;17.13;;
24787;SDS011;12883;52.662;5.196;2024-03-22T11:08:00;18.20;;;18.10;;
24787;SDS011;12883;52.662;5.196;2024-03-22T11:10:28;18.90;;;18.80;;
24787;SDS011;12883;52.662;5.196;2024-03-22T11:12:55;20.03;;;19.93;;
24787;SDS011;12883;52.662;5.196;2024-03-22T11:15:21;18.27;;;18.17;;
24787;SDS011;12883;52.662;5.196;2024-03-22T11:17:47;19.53;;;19.43;;
24787;SDS011;12883;52.662;5.196;2024-03-22T11:20:14;18.97;;;18.87;;
24787;SDS011;12883;52.662;5.196;2024-03-22T11:22:40;19.47;;;19.37;;
24787;SDS011;12883;52.662;5.196;2024-03-22T11:25:06;17.53;;;17.43;;
24787;SDS011;12883;52.662;5.196;2024-03-22T11:27:32;17.57;;;17.47;;
24787;SDS011;12883;52.662;5.196;2024-03-22T11:29:57;17.27;;;17.17;;
24787;SDS011;12883;52.662;5.196;2024-03-22T11:32:23;16.77;;;16.67;;
24787;SDS011;12883;52.662;5.196;2024-03-22T11:34:49;16.70;;;16.60;;
24787;SDS011;12883;52.662;5.196;2024-03-22T11:37:14;17.53;;;17.43;;
24787;SDS011;12883;52.662;5.196;2024-03-22T11:39:39;17.07;;;16.97;;
24787;SDS011;12883;52.662;5.196;2024-03-22T11:42:05;17.23;;;17.13;;
24787;SDS011;12883;52.662;5.196;2024-03-22T11:44:33;16.93;;;16.83;;
24787;SDS011;12883;52.662;5.196;2024-03-22T11:47:03;17.03;;;16.93;;
24787;SDS011;12883;52.662;5.196;2024-03-22T11:49:29;16.27;;;16.17;;
24787;SDS011;12883;52.662;5.196;2024-03-22T11:51:58;18.07;;;17.97;;
24787;SDS011;12883;52.662;5.196;2024-03-22T11:54:23;15.33;;;15.23;;
24787;SDS011;12883;52.662;5.196;2024-03-22T11:56:49;14.80;;;14.70;;
24787;SDS011;12883;52.662;5.196;2024-03-22T11:59:14;13.73;;;13.63;;
24787;SDS011;12883;52.662;5.196;2024-03-22T12:01:40;15.30;;;15.20;;
24787;SDS011;12883;52.662;5.196;2024-03-22T12:04:06;14.17;;;14.07;;
24787;SDS011;12883;52.662;5.196;2024-03-22T12:06:35;15.33;;;15.23;;
24787;SDS011;12883;52.662;5.196;2024-03-22T12:09:01;15.20;;;15.10;;
24787;SDS011;12883;52.662;5.196;2024-03-22T12:11:28;14.87;;;14.77;;
24787;SDS011;12883;52.662;5.196;2024-03-22T12:13:54;14.23;;;14.13;;
24787;SDS011;12883;52.662;5.196;2024-03-22T12:16:19;14.03;;;13.93;;
24787;SDS011;12883;52.662;5.196;2024-03-22T12:18:44;13.67;;;13.57;;
24787;SDS011;12883;52.662;5.196;2024-03-22T12:21:09;15.10;;;15.00;;
24787;SDS011;12883;52.662;5.196;2024-03-22T12:23:35;12.37;;;12.27;;
24787;SDS011;12883;52.662;5.196;2024-03-22T12:26:00;11.37;;;11.30;;
24787;SDS011;12883;52.662;5.196;2024-03-22T12:28:26;12.20;;;12.10;;
24787;SDS011;12883;52.662;5.196;2024-03-22T12:30:51;12.63;;;12.53;;
24787;SDS011;12883;52.662;5.196;2024-03-22T12:33:17;11.20;;;11.10;;
24787;SDS011;12883;52.662;5.196;2024-03-22T12:35:42;10.07;;;10.00;;
24787;SDS011;12883;52.662;5.196;2024-03-22T12:38:08;10.03;;;9.93;;
24787;SDS011;12883;52.662;5.196;2024-03-22T12:40:38;10.10;;;10.00;;
24787;SDS011;12883;52.662;5.196;2024-03-22T12:43:04;10.27;;;10.17;;
24787;SDS011;12883;52.662;5.196;2024-03-22T12:45:30;9.80;;;9.70;;
24787;SDS011;12883;52.662;5.196;2024-03-22T12:47:57;9.50;;;9.40;;
24787;SDS011;12883;52.662;5.196;2024-03-22T12:50:23;9.03;;;8.93;;
24787;SDS011;12883;52.662;5.196;2024-03-22T12:52:48;9.97;;;9.87;;
24787;SDS011;12883;52.662;5.196;2024-03-22T12:55:13;8.27;;;8.17;;
24787;SDS011;12883;52.662;5.196;2024-03-22T12:57:39;8.40;;;8.30;;
24787;SDS011;12883;52.662;5.196;2024-03-22T13:00:06;6.63;;;6.63;;
24787;SDS011;12883;52.662;5.196;2024-03-22T13:02:38;7.63;;;7.53;;
24787;SDS011;12883;52.662;5.196;2024-03-22T13:05:04;10.17;;;10.07;;
24787;SDS011;12883;52.662;5.196;2024-03-22T13:07:30;6.50;;;6.50;;
24787;SDS011;12883;52.662;5.196;2024-03-22T13:09:55;5.87;;;5.87;;
24787;SDS011;12883;52.662;5.196;2024-03-22T13:12:20;7.00;;;6.90;;
24787;SDS011;12883;52.662;5.196;2024-03-22T13:14:46;6.17;;;6.17;;
24787;SDS011;12883;52.662;5.196;2024-03-22T13:17:12;6.10;;;6.10;;
24787;SDS011;12883;52.662;5.196;2024-03-22T13:19:37;5.87;;;5.87;;
24787;SDS011;12883;52.662;5.196;2024-03-22T13:22:03;5.30;;;5.30;;
24787;SDS011;12883;52.662;5.196;2024-03-22T13:24:28;5.23;;;5.13;;
24787;SDS011;12883;52.662;5.196;2024-03-22T13:26:53;5.43;;;5.43;;
24787;SDS011;12883;52.662;5.196;2024-03-22T13:29:19;4.90;;;4.90;;
24787;SDS011;12883;52.662;5.196;2024-03-22T13:31:44;5.80;;;5.70;;
24787;SDS011;12883;52.662;5.196;2024-03-22T13:34:10;4.90;;;4.90;;
24787;SDS011;12883;52.662;5.196;2024-03-22T13:36:35;4.70;;;4.70;;
24787;SDS011;12883;52.662;5.196;2024-03-22T13:39:03;5.50;;;5.50;;
24787;SDS011;12883;52.662;5.196;2024-03-22T13:41:28;5.43;;;5.43;;
24787;SDS011;12883;52.662;5.196;2024-03-22T13:43:54;5.07;;;5.07;;
24787;SDS011;12883;52.662;5.196;2024-03-22T13:46:19;5.03;;;4.93;;
24787;SDS011;12883;52.662;5.196;2024-03-22T13:48:44;4.93;;;4.83;;
24787;SDS011;12883;52.662;5.196;2024-03-22T13:51:10;5.13;;;5.03;;
24787;SDS011;12883;52.662;5.196;2024-03-22T13:53:35;4.40;;;4.40;;
24787;SDS011;12883;52.662;5.196;2024-03-22T13:56:01;5.17;;;5.17;;
24787;SDS011;12883;52.662;5.196;2024-03-22T13:58:27;4.67;;;4.67;;
24787;SDS011;12883;52.662;5.196;2024-03-22T14:00:52;5.27;;;5.27;;
24787;SDS011;12883;52.662;5.196;2024-03-22T14:03:18;5.27;;;5.17;;
24787;SDS011;12883;52.662;5.196;2024-03-22T14:05:44;4.63;;;4.57;;
24787;SDS011;12883;52.662;5.196;2024-03-22T14:08:09;4.63;;;4.63;;
24787;SDS011;12883;52.662;5.196;2024-03-22T14:10:35;4.23;;;4.13;;
24787;SDS011;12883;52.662;5.196;2024-03-22T14:13:00;4.97;;;4.87;;
24787;SDS011;12883;52.662;5.196;2024-03-22T14:15:26;5.47;;;5.37;;